sensor_id;sensor_type;location;lat;lon;timestamp;temperature;humidity
75275;HTU21D;63871;47.216;39.684;2023-06-24T13:18:37;34.54;32.26
75275;HTU21D;63871;47.216;39.684;2023-06-24T13:21:04;34.78;32.16
75275;HTU21D;63871;47.216;39.684;2023-06-24T13:23:29;35.03;30.65
75275;HTU21D;63871;47.216;39.684;2023-06-24T13:25:55;35.03;30.32
75275;HTU21D;63871;47.216;39.684;2023-06-24T13:28:21;35.07;30.87
75275;HTU21D;63871;47.216;39.684;2023-06-24T13:30:46;35.01;30.22
75275;HTU21D;63871;47.216;39.684;2023-06-24T13:33:12;34.85;30.00
75275;HTU21D;63871;47.216;39.684;2023-06-24T13:35:38;34.71;30.41
75275;HTU21D;63871;47.216;39.684;2023-06-24T13:38:04;34.76;30.43
75275;HTU21D;63871;47.216;39.684;2023-06-24T13:40:31;34.88;31.11
75275;HTU21D;63871;47.216;39.684;2023-06-24T13:42:57;34.95;31.41
75275;HTU21D;63871;47.216;39.684;2023-06-24T13:45:22;34.88;31.50
75275;HTU21D;63871;47.216;39.684;2023-06-24T13:47:48;34.54;31.93
75275;HTU21D;63871;47.216;39.684;2023-06-24T13:50:14;34.11;32.70
75275;HTU21D;63871;47.216;39.684;2023-06-24T13:52:40;33.68;33.47
75275;HTU21D;63871;47.216;39.684;2023-06-24T13:55:06;33.36;34.46
75275;HTU21D;63871;47.216;39.684;2023-06-24T13:57:32;33.20;34.91
75275;HTU21D;63871;47.216;39.684;2023-06-24T13:59:59;32.88;35.46
75275;HTU21D;63871;47.216;39.684;2023-06-24T14:02:25;32.40;36.32
75275;HTU21D;63871;47.216;39.684;2023-06-24T14:04:51;31.85;37.62
75275;HTU21D;63871;47.216;39.684;2023-06-24T14:07:17;31.28;38.96
75275;HTU21D;63871;47.216;39.684;2023-06-24T14:09:43;30.82;40.26
75275;HTU21D;63871;47.216;39.684;2023-06-24T14:12:09;30.45;41.60
75275;HTU21D;63871;47.216;39.684;2023-06-24T14:14:36;30.04;42.97
75275;HTU21D;63871;47.216;39.684;2023-06-24T14:17:06;29.67;44.04
75275;HTU21D;63871;47.216;39.684;2023-06-24T14:19:38;29.35;45.62
75275;HTU21D;63871;47.216;39.684;2023-06-24T14:22:04;29.05;46.33
75275;HTU21D;63871;47.216;39.684;2023-06-24T14:24:30;28.79;47.63
75275;HTU21D;63871;47.216;39.684;2023-06-24T14:26:55;28.57;48.34
75275;HTU21D;63871;47.216;39.684;2023-06-24T14:29:21;28.37;48.95
75275;HTU21D;63871;47.216;39.684;2023-06-24T14:31:47;28.19;50.50
75275;HTU21D;63871;47.216;39.684;2023-06-24T14:34:13;27.98;51.04
75275;HTU21D;63871;47.216;39.684;2023-06-24T14:36:39;27.78;51.72
75275;HTU21D;63871;47.216;39.684;2023-06-24T14:39:05;27.61;53.07
75275;HTU21D;63871;47.216;39.684;2023-06-24T14:41:31;27.42;53.65
75275;HTU21D;63871;47.216;39.684;2023-06-24T14:43:57;27.27;55.01
75275;HTU21D;63871;47.216;39.684;2023-06-24T14:46:23;27.09;55.70
75275;HTU21D;63871;47.216;39.684;2023-06-24T14:48:48;26.99;56.41
75275;HTU21D;63871;47.216;39.684;2023-06-24T14:51:14;26.89;55.84
75275;HTU21D;63871;47.216;39.684;2023-06-24T14:53:40;26.78;55.36
75275;HTU21D;63871;47.216;39.684;2023-06-24T14:56:06;26.72;55.29
75275;HTU21D;63871;47.216;39.684;2023-06-24T14:58:32;26.42;56.32
75275;HTU21D;63871;47.216;39.684;2023-06-24T15:00:57;25.76;57.38
75275;HTU21D;63871;47.216;39.684;2023-06-24T15:03:23;25.18;59.04
75275;HTU21D;63871;47.216;39.684;2023-06-24T15:05:49;24.71;60.99
75275;HTU21D;63871;47.216;39.684;2023-06-24T15:08:14;24.30;62.05
75275;HTU21D;63871;47.216;39.684;2023-06-24T15:10:40;23.90;63.46
75275;HTU21D;63871;47.216;39.684;2023-06-24T15:13:06;23.58;64.45
75275;HTU21D;63871;47.216;39.684;2023-06-24T15:15:31;23.39;64.10
75275;HTU21D;63871;47.216;39.684;2023-06-24T15:17:58;23.27;64.52
75275;HTU21D;63871;47.216;39.684;2023-06-24T15:20:25;23.17;65.67
75275;HTU21D;63871;47.216;39.684;2023-06-24T15:22:51;23.09;66.54
75275;HTU21D;63871;47.216;39.684;2023-06-24T15:25:17;23.01;67.51
75275;HTU21D;63871;47.216;39.684;2023-06-24T15:27:43;22.96;67.77
75275;HTU21D;63871;47.216;39.684;2023-06-24T15:30:09;22.94;67.72
75275;HTU21D;63871;47.216;39.684;2023-06-24T15:32:35;22.98;67.23
75275;HTU21D;63871;47.216;39.684;2023-06-24T15:35:02;23.03;66.78
75275;HTU21D;63871;47.216;39.684;2023-06-24T15:37:28;23.10;65.27
75275;HTU21D;63871;47.216;39.684;2023-06-24T15:39:55;23.22;63.93
75275;HTU21D;63871;47.216;39.684;2023-06-24T15:42:21;23.29;63.06
75275;HTU21D;63871;47.216;39.684;2023-06-24T15:44:46;23.42;63.09
75275;HTU21D;63871;47.216;39.684;2023-06-24T15:47:12;23.51;63.18
75275;HTU21D;63871;47.216;39.684;2023-06-24T15:49:38;23.65;63.18
75275;HTU21D;63871;47.216;39.684;2023-06-24T15:52:04;23.70;62.91
75275;HTU21D;63871;47.216;39.684;2023-06-24T15:54:30;23.74;62.44
75275;HTU21D;63871;47.216;39.684;2023-06-24T15:56:55;23.79;62.34
75275;HTU21D;63871;47.216;39.684;2023-06-24T15:59:21;23.79;62.86
75275;HTU21D;63871;47.216;39.684;2023-06-24T16:01:47;23.73;63.46
75275;HTU21D;63871;47.216;39.684;2023-06-24T16:04:13;23.66;64.61
75275;HTU21D;63871;47.216;39.684;2023-06-24T16:06:38;23.46;65.30
75275;HTU21D;63871;47.216;39.684;2023-06-24T16:09:04;23.23;65.60
75275;HTU21D;63871;47.216;39.684;2023-06-24T16:11:30;23.00;66.24
75275;HTU21D;63871;47.216;39.684;2023-06-24T16:13:55;22.73;67.35
75275;HTU21D;63871;47.216;39.684;2023-06-24T16:16:21;22.54;68.28
75275;HTU21D;63871;47.216;39.684;2023-06-24T16:18:47;22.36;68.67
75275;HTU21D;63871;47.216;39.684;2023-06-24T16:21:13;22.24;69.27
75275;HTU21D;63871;47.216;39.684;2023-06-24T16:23:39;22.16;69.47
75275;HTU21D;63871;47.216;39.684;2023-06-24T16:26:05;22.10;69.78
75275;HTU21D;63871;47.216;39.684;2023-06-24T16:28:30;22.07;70.25
75275;HTU21D;63871;47.216;39.684;2023-06-24T16:30:56;22.05;70.42
75275;HTU21D;63871;47.216;39.684;2023-06-24T16:33:22;22.05;70.45
75275;HTU21D;63871;47.216;39.684;2023-06-24T16:35:48;22.08;69.73
75275;HTU21D;63871;47.216;39.684;2023-06-24T16:38:13;22.13;68.99
75275;HTU21D;63871;47.216;39.684;2023-06-24T16:40:39;22.19;68.46
75275;HTU21D;63871;47.216;39.684;2023-06-24T16:43:05;22.24;67.99
75275;HTU21D;63871;47.216;39.684;2023-06-24T16:45:30;22.27;68.01
75275;HTU21D;63871;47.216;39.684;2023-06-24T16:47:56;22.16;69.06
75275;HTU21D;63871;47.216;39.684;2023-06-24T16:50:22;21.97;69.62
75275;HTU21D;63871;47.216;39.684;2023-06-24T16:52:48;21.78;70.59
75275;HTU21D;63871;47.216;39.684;2023-06-24T16:55:14;21.60;71.35
75275;HTU21D;63871;47.216;39.684;2023-06-24T16:57:39;21.42;71.72
75275;HTU21D;63871;47.216;39.684;2023-06-24T17:00:05;21.31;71.38
75275;HTU21D;63871;47.216;39.684;2023-06-24T17:02:31;21.23;71.73
75275;HTU21D;63871;47.216;39.684;2023-06-24T17:04:58;21.14;72.38
75275;HTU21D;63871;47.216;39.684;2023-06-24T17:07:23;21.09;72.74
75275;HTU21D;63871;47.216;39.684;2023-06-24T17:09:49;21.06;73.83
75275;HTU21D;63871;47.216;39.684;2023-06-24T17:12:15;21.04;74.69
75275;HTU21D;63871;47.216;39.684;2023-06-24T17:14:40;21.01;76.12
75275;HTU21D;63871;47.216;39.684;2023-06-24T17:17:07;21.00;77.67
75275;HTU21D;63871;47.216;39.684;2023-06-24T17:19:33;20.99;78.36
75275;HTU21D;63871;47.216;39.684;2023-06-24T17:21:58;20.95;78.43
75275;HTU21D;63871;47.216;39.684;2023-06-24T17:24:24;20.91;78.65
75275;HTU21D;63871;47.216;39.684;2023-06-24T17:26:50;20.89;78.92
75275;HTU21D;63871;47.216;39.684;2023-06-24T17:29:15;20.88;79.02
75275;HTU21D;63871;47.216;39.684;2023-06-24T17:31:41;20.89;79.04
75275;HTU21D;63871;47.216;39.684;2023-06-24T17:34:07;20.90;79.20
75275;HTU21D;63871;47.216;39.684;2023-06-24T17:36:33;20.92;78.99
75275;HTU21D;63871;47.216;39.684;2023-06-24T17:38:58;20.95;79.18
75275;HTU21D;63871;47.216;39.684;2023-06-24T17:41:24;21.00;78.95
75275;HTU21D;63871;47.216;39.684;2023-06-24T17:43:50;21.07;79.56
75275;HTU21D;63871;47.216;39.684;2023-06-24T17:46:16;21.13;79.24
75275;HTU21D;63871;47.216;39.684;2023-06-24T17:48:41;21.19;79.24
75275;HTU21D;63871;47.216;39.684;2023-06-24T17:51:07;21.23;78.91
75275;HTU21D;63871;47.216;39.684;2023-06-24T17:53:33;21.28;78.57
75275;HTU21D;63871;47.216;39.684;2023-06-24T17:55:59;21.34;78.18
75275;HTU21D;63871;47.216;39.684;2023-06-24T17:58:24;21.39;77.89
75275;HTU21D;63871;47.216;39.684;2023-06-24T18:00:50;21.43;77.53
75275;HTU21D;63871;47.216;39.684;2023-06-24T18:03:16;21.46;77.11
75275;HTU21D;63871;47.216;39.684;2023-06-24T18:05:42;21.49;76.58
75275;HTU21D;63871;47.216;39.684;2023-06-24T18:08:08;21.52;75.96
75275;HTU21D;63871;47.216;39.684;2023-06-24T18:10:33;21.60;75.44
75275;HTU21D;63871;47.216;39.684;2023-06-24T18:13:02;21.63;75.02
75275;HTU21D;63871;47.216;39.684;2023-06-24T18:15:28;21.65;74.64
75275;HTU21D;63871;47.216;39.684;2023-06-24T18:17:54;21.67;74.28
75275;HTU21D;63871;47.216;39.684;2023-06-24T18:20:20;21.69;73.99
75275;HTU21D;63871;47.216;39.684;2023-06-24T18:22:46;21.69;73.65
75275;HTU21D;63871;47.216;39.684;2023-06-24T18:25:11;21.68;73.40
75275;HTU21D;63871;47.216;39.684;2023-06-24T18:27:38;21.70;73.28
75275;HTU21D;63871;47.216;39.684;2023-06-24T18:30:08;21.69;73.19
75275;HTU21D;63871;47.216;39.684;2023-06-24T18:32:35;21.68;73.24
75275;HTU21D;63871;47.216;39.684;2023-06-24T18:35:03;21.69;73.16
75275;HTU21D;63871;47.216;39.684;2023-06-24T18:37:29;21.70;73.20
75275;HTU21D;63871;47.216;39.684;2023-06-24T18:40:00;21.70;73.19
75275;HTU21D;63871;47.216;39.684;2023-06-24T18:42:27;21.70;73.20
75275;HTU21D;63871;47.216;39.684;2023-06-24T18:44:53;21.67;73.32
75275;HTU21D;63871;47.216;39.684;2023-06-24T18:47:19;21.68;73.54
75275;HTU21D;63871;47.216;39.684;2023-06-24T18:49:44;21.68;73.90
75275;HTU21D;63871;47.216;39.684;2023-06-24T18:52:10;21.70;74.40
75275;HTU21D;63871;47.216;39.684;2023-06-24T18:54:36;21.72;74.91
75275;HTU21D;63871;47.216;39.684;2023-06-24T18:57:02;21.75;74.92
75275;HTU21D;63871;47.216;39.684;2023-06-24T18:59:28;21.78;75.17
75275;HTU21D;63871;47.216;39.684;2023-06-24T19:01:53;21.79;75.49
75275;HTU21D;63871;47.216;39.684;2023-06-24T19:04:19;21.82;75.47
75275;HTU21D;63871;47.216;39.684;2023-06-24T19:06:45;21.83;75.51
75275;HTU21D;63871;47.216;39.684;2023-06-24T19:09:10;21.84;75.86
75275;HTU21D;63871;47.216;39.684;2023-06-24T19:11:36;21.87;75.71
75275;HTU21D;63871;47.216;39.684;2023-06-24T19:14:02;21.85;76.15
75275;HTU21D;63871;47.216;39.684;2023-06-24T19:16:29;21.83;76.12
75275;HTU21D;63871;47.216;39.684;2023-06-24T19:18:56;21.81;76.24
75275;HTU21D;63871;47.216;39.684;2023-06-24T19:21:22;21.80;76.42
75275;HTU21D;63871;47.216;39.684;2023-06-24T19:23:48;21.79;77.08
75275;HTU21D;63871;47.216;39.684;2023-06-24T19:26:13;21.78;77.16
75275;HTU21D;63871;47.216;39.684;2023-06-24T19:28:39;21.79;77.34
75275;HTU21D;63871;47.216;39.684;2023-06-24T19:31:05;21.82;77.97
75275;HTU21D;63871;47.216;39.684;2023-06-24T19:33:30;21.85;78.14
75275;HTU21D;63871;47.216;39.684;2023-06-24T19:35:56;21.87;78.30
75275;HTU21D;63871;47.216;39.684;2023-06-24T19:38:22;21.88;78.31
75275;HTU21D;63871;47.216;39.684;2023-06-24T19:40:48;21.90;78.30
75275;HTU21D;63871;47.216;39.684;2023-06-24T19:43:14;21.92;78.40
75275;HTU21D;63871;47.216;39.684;2023-06-24T19:45:39;21.95;78.53
75275;HTU21D;63871;47.216;39.684;2023-06-24T19:48:05;21.96;78.44
75275;HTU21D;63871;47.216;39.684;2023-06-24T19:50:31;21.97;78.37
75275;HTU21D;63871;47.216;39.684;2023-06-24T19:52:57;22.03;78.59
75275;HTU21D;63871;47.216;39.684;2023-06-24T19:55:23;22.07;78.65
75275;HTU21D;63871;47.216;39.684;2023-06-24T19:57:48;22.14;78.79
75275;HTU21D;63871;47.216;39.684;2023-06-24T20:00:14;22.20;78.75
75275;HTU21D;63871;47.216;39.684;2023-06-24T20:02:40;22.24;78.63
75275;HTU21D;63871;47.216;39.684;2023-06-24T20:05:06;22.29;78.43
75275;HTU21D;63871;47.216;39.684;2023-06-24T20:07:32;22.34;78.27
75275;HTU21D;63871;47.216;39.684;2023-06-24T20:09:58;22.38;78.17
75275;HTU21D;63871;47.216;39.684;2023-06-24T20:12:23;22.42;77.87
75275;HTU21D;63871;47.216;39.684;2023-06-24T20:14:49;22.47;77.81
75275;HTU21D;63871;47.216;39.684;2023-06-24T20:17:15;22.47;77.77
75275;HTU21D;63871;47.216;39.684;2023-06-24T20:19:41;22.46;77.95
75275;HTU21D;63871;47.216;39.684;2023-06-24T20:22:07;22.46;77.95
75275;HTU21D;63871;47.216;39.684;2023-06-24T20:24:33;22.46;78.04
75275;HTU21D;63871;47.216;39.684;2023-06-24T20:26:58;22.48;78.03
75275;HTU21D;63871;47.216;39.684;2023-06-24T20:29:24;22.49;78.01
75275;HTU21D;63871;47.216;39.684;2023-06-24T20:31:50;22.48;77.94
75275;HTU21D;63871;47.216;39.684;2023-06-24T20:34:16;22.48;77.63
75275;HTU21D;63871;47.216;39.684;2023-06-24T20:36:42;22.47;77.37
75275;HTU21D;63871;47.216;39.684;2023-06-24T20:39:07;22.48;77.27
75275;HTU21D;63871;47.216;39.684;2023-06-24T20:41:33;22.49;77.02
75275;HTU21D;63871;47.216;39.684;2023-06-24T20:43:59;22.51;76.79
